Time;durP1;ratioP1;P1;durP2;ratioP2;P2;SDS_P1;SDS_P2;PMS_P1;PMS_P2;Temp;Humidity;BMP_temperature;BMP_pressure;BME280_temperature;BME280_humidity;BME280_pressure;Samples;Min_cycle;Max_cycle;Signal;HPM_P1;HPM_P2
2023/08/09 00:01:27;;;;;;;;;;;;;;;21.92;29.03;98068.78;4946457;28;889;-74
2023/08/09 00:03:53;;;;;;;;;;;;;;;22.02;28.91;98073.34;4962108;28;1139;-74
2023/08/09 00:06:18;;;;;;;;;;;;;;;22.28;28.28;98075.09;4979295;28;988;-74
2023/08/09 00:08:44;;;;;;;;;;;;;;;22.26;28.56;98083.22;4946314;28;1009;-74
2023/08/09 00:11:09;;;;;;;;;;;;;;;22.03;28.54;98086.28;4978868;28;1902;-75
2023/08/09 00:13:35;;;;;;;;;;;;;;;22.07;28.86;98087.78;4961433;28;1947;-74
2023/08/09 00:16:00;;;;;;;;;;;;;;;22.46;28.49;98096.47;4962161;28;895;-74
2023/08/09 00:18:25;;;;;;;;;;;;;;;22.09;29.06;98090.97;4962179;28;1121;-73
2023/08/09 00:20:51;;;;;;;;;;;;;;;22.07;29.21;98092.63;4979269;28;948;-74
2023/08/09 00:23:16;;;;;;;;;;;;;;;22.06;28.91;98091.03;4961540;28;1360;-74
2023/08/09 00:25:43;;;;;;;;;;;;;;;22.15;29.01;98098.94;4961613;28;983;-74
2023/08/09 00:28:08;;;;;;;;;;;;;;;21.96;29.32;98094.97;4961968;28;993;-74
2023/08/09 00:30:36;;;;;;;;;;;;;;;22.21;28.71;98097.94;4961113;28;1973;-74
2023/08/09 00:33:03;;;;;;;;;;;;;;;22.19;28.89;98097.59;4978794;28;1079;-74
2023/08/09 00:35:30;;;;;;;;;;;;;;;22.04;29.10;98104.88;4961893;28;949;-74
2023/08/09 00:37:55;;;;;;;;;;;;;;;22.29;28.72;98102.19;4961338;28;944;-74
2023/08/09 00:40:21;;;;;;;;;;;;;;;22.05;28.81;98101.59;4945371;28;938;-74
2023/08/09 00:42:48;;;;;;;;;;;;;;;22.18;28.63;98098.84;4945764;28;1201;-74
2023/08/09 00:45:13;;;;;;;;;;;;;;;22.17;28.83;98104.94;4960782;28;2016;-74
2023/08/09 00:47:39;;;;;;;;;;;;;;;22.11;28.85;98104.69;4978370;28;1826;-74
2023/08/09 00:50:04;;;;;;;;;;;;;;;22.18;28.80;98098.84;4978385;28;973;-74
2023/08/09 00:52:30;;;;;;;;;;;;;;;22.12;29.00;98094.16;4957319;28;1922;-75
2023/08/09 00:54:56;;;;;;;;;;;;;;;22.04;29.01;98104.88;4942391;29;1121;-74
2023/08/09 00:57:22;;;;;;;;;;;;;;;22.17;28.84;98102.13;4941945;29;1924;-74
2023/08/09 00:59:48;;;;;;;;;;;;;;;22.32;28.52;98098.44;4925161;29;1411;-74
2023/08/09 01:02:13;;;;;;;;;;;;;;;22.06;29.00;98094.66;4957910;28;1013;-74
2023/08/09 01:04:39;;;;;;;;;;;;;;;22.11;28.92;98084.88;4937426;29;1350;-75
2023/08/09 01:07:23;;;;;;;;;;;;;;;22.04;29.01;98099.19;4918601;29;1248;-75
2023/08/09 01:09:55;;;;;;;;;;;;;;;22.22;28.52;98096.69;4902781;29;1094;-74
2023/08/09 01:12:24;;;;;;;;;;;;;;;22.29;28.25;98101.41;4928893;29;2217;-75
2023/08/09 01:14:50;;;;;;;;;;;;;;;22.12;28.94;98102.66;4934230;29;1150;-74
2023/08/09 01:17:16;;;;;;;;;;;;;;;22.42;28.23;98092.91;4918650;29;991;-75
2023/08/09 01:19:42;;;;;;;;;;;;;;;22.40;28.19;98095.41;4900558;29;2143;-74
2023/08/09 01:22:15;;;;;;;;;;;;;;;22.02;28.75;98090.34;4899605;29;1052;-74
2023/08/09 01:24:41;;;;;;;;;;;;;;;22.05;28.76;98097.97;4899140;29;979;-74
2023/08/09 01:27:06;;;;;;;;;;;;;;;22.05;28.69;98100.78;4913807;29;2189;-74
2023/08/09 01:29:32;;;;;;;;;;;;;;;21.92;28.87;98097.13;4933948;29;1169;-74
2023/08/09 01:31:57;;;;;;;;;;;;;;;22.27;28.25;98098.19;4933873;29;1975;-74
2023/08/09 01:34:23;;;;;;;;;;;;;;;22.01;28.58;98088.75;4917810;29;966;-73
2023/08/09 01:36:50;;;;;;;;;;;;;;;22.23;28.30;98095.47;4877482;29;1166;-75
2023/08/09 01:39:17;;;;;;;;;;;;;;;22.35;28.17;98103.22;4914612;29;1252;-74
2023/08/09 01:41:43;;;;;;;;;;;;;;;22.02;28.64;98084.66;4936971;28;1982;-74
2023/08/09 01:44:10;;;;;;;;;;;;;;;21.87;28.49;98092.78;4921301;29;943;-74
2023/08/09 01:46:37;;;;;;;;;;;;;;;21.85;28.67;98096.03;4921416;29;1095;-75
2023/08/09 01:49:12;;;;;;;;;;;;;;;22.13;28.27;98095.78;4902001;29;1224;-75
2023/08/09 01:51:38;;;;;;;;;;;;;;;22.36;27.85;98104.03;4902081;29;1915;-74
2023/08/09 01:54:04;;;;;;;;;;;;;;;22.12;28.28;98100.63;4886480;29;1164;-74
2023/08/09 01:56:30;;;;;;;;;;;;;;;22.13;28.29;98107.09;4896458;29;1447;-74
2023/08/09 01:58:55;;;;;;;;;;;;;;;22.28;28.15;98109.09;4886419;29;1168;-74
2023/08/09 02:01:21;;;;;;;;;;;;;;;22.25;27.99;98109.19;4886576;29;1108;-74
2023/08/09 02:03:47;;;;;;;;;;;;;;;22.30;28.02;98123.63;4917766;29;1115;-74
2023/08/09 02:06:13;;;;;;;;;;;;;;;22.15;28.66;98115.94;4917867;29;1102;-74
2023/08/09 02:08:38;;;;;;;;;;;;;;;22.24;28.69;98114.06;4917746;29;1062;-75
2023/08/09 02:11:05;;;;;;;;;;;;;;;21.92;28.97;98114.91;4949014;29;2029;-73
2023/08/09 02:13:32;;;;;;;;;;;;;;;22.02;29.11;98118.66;4894361;29;1070;-75
2023/08/09 02:15:57;;;;;;;;;;;;;;;22.03;29.43;98112.59;4922156;29;951;-74
2023/08/09 02:18:23;;;;;;;;;;;;;;;22.24;29.01;98113.28;4899516;29;992;-74
2023/08/09 02:20:48;;;;;;;;;;;;;;;22.19;28.93;98117.44;4914814;29;1056;-74
2023/08/09 02:23:14;;;;;;;;;;;;;;;22.23;29.11;98118.16;4902636;29;1231;-74
2023/08/09 02:25:39;;;;;;;;;;;;;;;22.38;28.90;98123.41;4886602;29;1961;-74
2023/08/09 02:28:05;;;;;;;;;;;;;;;22.34;29.08;98124.31;4886860;29;1244;-74
2023/08/09 02:30:31;;;;;;;;;;;;;;;22.35;28.78;98125.91;4887142;29;986;-74
2023/08/09 02:32:56;;;;;;;;;;;;;;;22.28;29.33;98126.13;4886611;29;1907;-74
2023/08/09 02:35:22;;;;;;;;;;;;;;;22.19;29.32;98128.78;4886864;29;973;-73
2023/08/09 02:37:49;;;;;;;;;;;;;;;22.32;29.11;98126.78;4902496;29;1138;-74
2023/08/09 02:40:17;;;;;;;;;;;;;;;22.11;29.53;98127.38;4886506;29;1955;-74
2023/08/09 02:42:42;;;;;;;;;;;;;;;22.29;29.38;98133.38;4901656;29;2003;-74
2023/08/09 02:45:09;;;;;;;;;;;;;;;22.12;29.65;98128.97;4887141;29;1556;-75
2023/08/09 02:47:36;;;;;;;;;;;;;;;22.45;29.19;98123.22;4886373;29;930;-74
2023/08/09 02:50:02;;;;;;;;;;;;;;;22.25;29.49;98137.53;4903353;29;2143;-75
2023/08/09 02:52:29;;;;;;;;;;;;;;;22.51;28.95;98124.25;4880825;29;1911;-75
2023/08/09 02:54:54;;;;;;;;;;;;;;;22.25;29.57;98127.00;4886484;29;1125;-74
2023/08/09 02:57:20;;;;;;;;;;;;;;;22.17;29.60;98131.25;4886121;29;1381;-74
2023/08/09 02:59:46;;;;;;;;;;;;;;;22.33;29.41;98139.75;4901140;29;1167;-74
2023/08/09 03:02:13;;;;;;;;;;;;;;;22.35;29.38;98137.25;4889421;29;1219;-75
2023/08/09 03:04:39;;;;;;;;;;;;;;;22.38;29.22;98129.06;4889460;29;1394;-74
2023/08/09 03:07:05;;;;;;;;;;;;;;;22.43;29.28;98137.03;4888777;29;1948;-75
2023/08/09 03:09:31;;;;;;;;;;;;;;;22.40;29.39;98137.94;4905344;29;1167;-74
2023/08/09 03:11:57;;;;;;;;;;;;;;;22.51;29.19;98138.44;4905130;29;1911;-74
2023/08/09 03:14:22;;;;;;;;;;;;;;;22.49;29.02;98143.78;4904994;29;1303;-74
2023/08/09 03:16:48;;;;;;;;;;;;;;;22.54;29.10;98143.22;4904978;29;924;-74
2023/08/09 03:19:14;;;;;;;;;;;;;;;22.51;29.45;98149.78;4920690;29;1060;-74
2023/08/09 03:21:39;;;;;;;;;;;;;;;22.37;29.38;98145.28;4903038;29;1438;-74
2023/08/09 03:24:05;;;;;;;;;;;;;;;22.35;29.51;98151.41;4930849;29;1137;-74
2023/08/09 03:26:30;;;;;;;;;;;;;;;22.43;29.38;98154.03;4941954;29;984;-74
2023/08/09 03:28:58;;;;;;;;;;;;;;;22.34;29.41;98151.88;4925202;29;1618;-75
2023/08/09 03:31:23;;;;;;;;;;;;;;;22.40;29.51;98160.63;4940807;29;1904;-74
2023/08/09 03:33:51;;;;;;;;;;;;;;;22.57;29.25;98153.66;4956747;29;1319;-74
2023/08/09 03:36:16;;;;;;;;;;;;;;;22.33;29.50;98156.75;4950039;29;2078;-74
2023/08/09 03:38:43;;;;;;;;;;;;;;;22.37;29.44;98156.63;4942445;28;2113;-74
2023/08/09 03:41:09;;;;;;;;;;;;;;;22.65;28.98;98163.56;4958858;29;1628;-74
2023/08/09 03:43:35;;;;;;;;;;;;;;;22.35;29.52;98159.94;4960136;28;1460;-74
2023/08/09 03:46:04;;;;;;;;;;;;;;;22.55;29.15;98161.81;4918765;29;2051;-75
2023/08/09 03:48:29;;;;;;;;;;;;;;;22.45;29.40;98157.25;4904834;29;1119;-75
2023/08/09 03:50:55;;;;;;;;;;;;;;;22.45;29.29;98162.91;4904275;29;1903;-74
2023/08/09 03:53:20;;;;;;;;;;;;;;;22.22;29.96;98170.38;4904377;29;1183;-73
2023/08/09 03:55:46;;;;;;;;;;;;;;;21.92;30.27;98159.44;4904340;29;1065;-74
2023/08/09 03:58:11;;;;;;;;;;;;;;;22.04;30.17;98167.22;4919968;29;992;-75
2023/08/09 04:00:37;;;;;;;;;;;;;;;22.21;29.83;98168.81;4863676;29;1005;-74
2023/08/09 04:03:02;;;;;;;;;;;;;;;22.23;29.86;98174.84;4863673;29;1225;-75
2023/08/09 04:05:28;;;;;;;;;;;;;;;22.35;29.70;98171.25;4849517;29;1586;-75
2023/08/09 04:07:54;;;;;;;;;;;;;;;22.05;30.11;98182.97;4863603;29;1294;-75
2023/08/09 04:10:20;;;;;;;;;;;;;;;22.16;30.09;98182.72;4848283;29;1462;-75
2023/08/09 04:12:46;;;;;;;;;;;;;;;22.54;29.47;98177.25;4863402;29;1907;-75
2023/08/09 04:15:12;;;;;;;;;;;;;;;22.33;29.91;98192.81;4863442;29;981;-75
2023/08/09 04:17:37;;;;;;;;;;;;;;;22.15;30.07;98190.44;4876422;29;1384;-76
2023/08/09 04:20:04;;;;;;;;;;;;;;;22.32;29.67;98186.31;4900771;29;1033;-75
2023/08/09 04:22:29;;;;;;;;;;;;;;;22.32;29.69;98194.03;4900586;29;1161;-76
2023/08/09 04:24:55;;;;;;;;;;;;;;;22.41;29.51;98196.25;4900583;29;1002;-75
2023/08/09 04:27:22;;;;;;;;;;;;;;;22.50;29.62;98193.56;4900739;29;1106;-75
2023/08/09 04:29:47;;;;;;;;;;;;;;;22.44;29.55;98195.34;4900705;29;1029;-76
2023/08/09 04:32:13;;;;;;;;;;;;;;;22.19;29.84;98196.81;4899962;29;1947;-76
2023/08/09 04:34:39;;;;;;;;;;;;;;;22.44;29.68;98196.16;4900310;29;1000;-75
2023/08/09 04:37:05;;;;;;;;;;;;;;;22.58;29.52;98189.28;4885985;29;1034;-75
2023/08/09 04:39:30;;;;;;;;;;;;;;;22.48;29.62;98199.66;4903225;29;987;-76
2023/08/09 04:41:56;;;;;;;;;;;;;;;22.66;29.72;98204.06;4919206;29;950;-76
2023/08/09 04:44:21;;;;;;;;;;;;;;;22.67;29.49;98199.97;4903576;29;1016;-75
2023/08/09 04:46:47;;;;;;;;;;;;;;;22.84;29.13;98207.19;4907280;29;1259;-76
2023/08/09 04:49:12;;;;;;;;;;;;;;;22.61;29.69;98205.41;4938165;29;999;-75
2023/08/09 04:51:38;;;;;;;;;;;;;;;22.80;29.36;98206.53;4937650;29;1977;-76
2023/08/09 04:54:03;;;;;;;;;;;;;;;22.74;29.39;98203.44;4953819;29;981;-75
2023/08/09 04:56:29;;;;;;;;;;;;;;;22.45;30.02;98213.97;4958953;29;934;-77
2023/08/09 04:58:54;;;;;;;;;;;;;;;22.55;29.79;98207.19;4958218;29;913;-76
2023/08/09 05:01:20;;;;;;;;;;;;;;;22.75;29.54;98209.91;4925228;29;1246;-75
2023/08/09 05:03:45;;;;;;;;;;;;;;;22.44;29.95;98213.16;4959570;29;880;-75
2023/08/09 05:06:11;;;;;;;;;;;;;;;22.62;29.57;98207.00;4956492;28;1009;-75
2023/08/09 05:08:36;;;;;;;;;;;;;;;22.68;29.82;98215.75;4956976;29;993;-75
2023/08/09 05:11:02;;;;;;;;;;;;;;;22.68;29.82;98210.88;4956884;29;1987;-75
2023/08/09 05:13:27;;;;;;;;;;;;;;;22.67;29.76;98220.63;4922540;29;1824;-76
2023/08/09 05:15:53;;;;;;;;;;;;;;;22.72;29.71;98217.25;4957146;28;1041;-76
2023/08/09 05:18:18;;;;;;;;;;;;;;;22.70;29.73;98218.97;4956935;29;1011;-75
2023/08/09 05:20:45;;;;;;;;;;;;;;;22.72;29.87;98222.91;4940844;29;1139;-75
2023/08/09 05:23:10;;;;;;;;;;;;;;;22.72;29.66;98227.81;4956578;29;1252;-75
2023/08/09 05:25:36;;;;;;;;;;;;;;;22.88;29.44;98228.56;4940256;29;1540;-75
2023/08/09 05:28:02;;;;;;;;;;;;;;;22.79;29.78;98233.28;4964244;28;1577;-75
2023/08/09 05:30:28;;;;;;;;;;;;;;;22.77;29.49;98230.88;4932383;29;1516;-75
2023/08/09 05:32:53;;;;;;;;;;;;;;;22.73;29.77;98229.38;4941566;29;1907;-75
2023/08/09 05:35:19;;;;;;;;;;;;;;;22.72;29.51;98222.13;4929111;29;1627;-76
2023/08/09 05:37:44;;;;;;;;;;;;;;;22.70;29.92;98231.09;4933155;29;1667;-75
2023/08/09 05:40:12;;;;;;;;;;;;;;;22.74;29.92;98226.13;4951023;29;1473;-76
2023/08/09 05:42:38;;;;;;;;;;;;;;;23.06;29.41;98241.47;4941358;29;994;-75
2023/08/09 05:45:04;;;;;;;;;;;;;;;22.81;29.44;98231.59;4960171;28;1537;-75
2023/08/09 05:47:29;;;;;;;;;;;;;;;22.75;29.77;98238.25;4960587;28;936;-76
2023/08/09 05:49:55;;;;;;;;;;;;;;;22.70;29.70;98241.66;4959127;28;1016;-76
2023/08/09 05:52:20;;;;;;;;;;;;;;;22.71;29.75;98238.34;4975578;28;1981;-76
2023/08/09 05:54:46;;;;;;;;;;;;;;;22.60;30.18;98243.53;4940266;29;1048;-75
2023/08/09 05:57:12;;;;;;;;;;;;;;;22.64;29.92;98241.41;4940124;29;1011;-76
2023/08/09 05:59:39;;;;;;;;;;;;;;;22.70;30.06;98242.44;4924286;29;1251;-76
2023/08/09 06:02:06;;;;;;;;;;;;;;;22.73;30.22;98246.41;4940041;29;1011;-75
2023/08/09 06:04:32;;;;;;;;;;;;;;;22.53;30.46;98243.69;4940136;29;1292;-76
2023/08/09 06:06:57;;;;;;;;;;;;;;;22.67;30.24;98249.00;4956504;29;1063;-76
2023/08/09 06:09:23;;;;;;;;;;;;;;;22.69;29.98;98246.53;4955927;29;995;-76
2023/08/09 06:11:49;;;;;;;;;;;;;;;22.69;30.47;98252.19;4955937;29;1907;-75
2023/08/09 06:14:14;;;;;;;;;;;;;;;22.73;30.05;98247.22;4940348;29;986;-76
2023/08/09 06:16:43;;;;;;;;;;;;;;;22.78;30.04;98254.38;4955628;29;1002;-75
2023/08/09 06:19:09;;;;;;;;;;;;;;;22.71;30.21;98248.91;4923943;29;1181;-76
2023/08/09 06:21:34;;;;;;;;;;;;;;;22.81;30.28;98242.16;4955801;29;1049;-76
2023/08/09 06:24:00;;;;;;;;;;;;;;;22.70;30.23;98248.13;4924273;29;954;-76
2023/08/09 06:26:25;;;;;;;;;;;;;;;22.81;30.16;98248.63;4940035;29;952;-76
2023/08/09 06:28:51;;;;;;;;;;;;;;;22.71;30.36;98255.38;4924064;29;958;-76
2023/08/09 06:31:17;;;;;;;;;;;;;;;22.98;29.80;98252.22;4926242;28;1990;-76
2023/08/09 06:33:42;;;;;;;;;;;;;;;22.68;30.55;98250.59;4943025;28;978;-76
2023/08/09 06:36:09;;;;;;;;;;;;;;;22.85;30.26;98248.53;4943712;28;1306;-76
2023/08/09 06:38:34;;;;;;;;;;;;;;;22.87;30.33;98257.38;4959853;28;919;-76
2023/08/09 06:41:00;;;;;;;;;;;;;;;22.83;30.22;98263.13;4960382;28;928;-76
2023/08/09 06:43:25;;;;;;;;;;;;;;;22.90;30.03;98250.03;4975842;28;1021;-75
2023/08/09 06:45:51;;;;;;;;;;;;;;;22.83;30.32;98246.13;4977051;28;1106;-75
2023/08/09 06:48:17;;;;;;;;;;;;;;;22.83;30.33;98240.44;4977270;28;923;-76
2023/08/09 06:50:42;;;;;;;;;;;;;;;22.73;30.59;98238.69;4977310;28;947;-75
2023/08/09 06:53:08;;;;;;;;;;;;;;;22.90;30.23;98244.34;4955726;29;1914;-76
2023/08/09 06:55:33;;;;;;;;;;;;;;;22.80;30.22;98241.34;4955780;29;1133;-76
2023/08/09 06:57:59;;;;;;;;;;;;;;;22.83;30.63;98239.66;4936173;29;1050;-76
2023/08/09 07:00:25;;;;;;;;;;;;;;;22.81;30.61;98236.47;4923613;29;946;-75
2023/08/09 07:02:50;;;;;;;;;;;;;;;22.75;30.69;98239.06;4923850;29;1122;-76
2023/08/09 07:05:18;;;;;;;;;;;;;;;22.80;30.42;98241.34;4938994;29;1621;-76
2023/08/09 07:07:44;;;;;;;;;;;;;;;22.96;30.08;98236.91;4929671;29;966;-76
2023/08/09 07:10:10;;;;;;;;;;;;;;;22.88;30.52;98237.09;4904981;29;1141;-76
2023/08/09 07:12:36;;;;;;;;;;;;;;;22.91;30.47;98228.94;4920833;29;1911;-75
2023/08/09 07:15:01;;;;;;;;;;;;;;;23.06;30.25;98241.47;4920787;29;970;-76
2023/08/09 07:17:27;;;;;;;;;;;;;;;22.93;30.25;98249.13;4920707;29;1035;-76
2023/08/09 07:19:52;;;;;;;;;;;;;;;22.83;30.29;98240.44;4904774;29;1088;-78
2023/08/09 07:22:18;;;;;;;;;;;;;;;22.73;30.52;98229.38;4919853;29;1742;-77
2023/08/09 07:24:43;;;;;;;;;;;;;;;22.90;30.39;98236.66;4954013;29;985;-77
2023/08/09 07:27:09;;;;;;;;;;;;;;;23.12;30.22;98236.84;4939593;29;1198;-78
2023/08/09 07:29:34;;;;;;;;;;;;;;;23.00;30.43;98232.72;4923392;29;992;-77
2023/08/09 07:32:00;;;;;;;;;;;;;;;23.00;30.39;98243.25;4939219;29;1989;-78
2023/08/09 07:34:26;;;;;;;;;;;;;;;23.06;30.01;98247.16;4937968;29;1004;-78
2023/08/09 07:36:52;;;;;;;;;;;;;;;23.25;29.72;98239.69;4938087;29;1371;-77
2023/08/09 07:39:17;;;;;;;;;;;;;;;23.03;30.27;98248.03;4932210;29;1483;-77
2023/08/09 07:41:43;;;;;;;;;;;;;;;23.07;29.73;98245.91;4921080;29;1565;-76
2023/08/09 07:44:08;;;;;;;;;;;;;;;22.77;30.63;98247.91;4942553;29;1166;-77
2023/08/09 07:46:34;;;;;;;;;;;;;;;22.76;30.35;98234.19;4951710;29;1497;-77
2023/08/09 07:48:59;;;;;;;;;;;;;;;22.65;30.59;98237.31;4928303;29;1754;-76
2023/08/09 07:51:26;;;;;;;;;;;;;;;22.88;30.07;98237.09;4933334;29;1961;-77
2023/08/09 07:53:51;;;;;;;;;;;;;;;22.63;30.81;98242.63;4933763;29;1544;-77
2023/08/09 07:56:17;;;;;;;;;;;;;;;22.84;30.35;98236.34;4926409;29;1587;-76
2023/08/09 07:58:43;;;;;;;;;;;;;;;22.96;30.24;98231.22;4940423;28;1179;-77
2023/08/09 08:01:08;;;;;;;;;;;;;;;22.97;30.25;98227.13;4961538;28;989;-77
2023/08/09 08:03:34;;;;;;;;;;;;;;;22.96;30.18;98234.84;4961247;28;1310;-76
2023/08/09 08:05:59;;;;;;;;;;;;;;;22.99;29.90;98227.47;4977269;28;989;-76
2023/08/09 08:08:25;;;;;;;;;;;;;;;22.88;30.25;98230.63;4977327;28;952;-78
2023/08/09 08:10:50;;;;;;;;;;;;;;;22.87;30.16;98229.78;4960331;28;1528;-77
2023/08/09 08:13:16;;;;;;;;;;;;;;;22.95;30.29;98226.78;4941465;29;1974;-76
2023/08/09 08:15:41;;;;;;;;;;;;;;;22.76;30.55;98220.78;4958133;29;946;-77
2023/08/09 08:18:07;;;;;;;;;;;;;;;22.81;30.52;98220.25;4957777;29;1013;-76
2023/08/09 08:20:33;;;;;;;;;;;;;;;22.92;30.36;98222.00;4943835;29;1275;-77
2023/08/09 08:22:58;;;;;;;;;;;;;;;22.99;30.21;98210.44;4948890;29;1514;-76
2023/08/09 08:25:24;;;;;;;;;;;;;;;22.84;30.26;98207.97;4949289;29;1647;-78
2023/08/09 08:27:50;;;;;;;;;;;;;;;22.73;30.65;98203.84;4955576;29;1952;-77
2023/08/09 08:30:19;;;;;;;;;;;;;;;23.03;29.87;98208.31;4941213;29;1983;-78
2023/08/09 08:32:46;;;;;;;;;;;;;;;22.78;30.41;98198.44;4950736;29;1910;-77
2023/08/09 08:35:13;;;;;;;;;;;;;;;22.97;30.25;98201.59;4937993;29;1047;-77
2023/08/09 08:37:39;;;;;;;;;;;;;;;22.85;30.28;98201.09;4936175;29;1888;-77
2023/08/09 08:40:07;;;;;;;;;;;;;;;22.65;30.74;98200.44;4924909;29;1234;-76
2023/08/09 08:42:33;;;;;;;;;;;;;;;22.70;30.78;98190.59;4921651;29;1038;-76
2023/08/09 08:44:58;;;;;;;;;;;;;;;23.05;29.87;98191.63;4938165;29;1260;-76
2023/08/09 08:47:24;;;;;;;;;;;;;;;22.95;30.32;98189.88;4937947;29;1000;-77
2023/08/09 08:49:50;;;;;;;;;;;;;;;22.84;30.21;98179.59;4884262;29;1522;-76
2023/08/09 08:52:16;;;;;;;;;;;;;;;22.91;30.35;98178.66;4883986;29;1980;-75
2023/08/09 08:54:42;;;;;;;;;;;;;;;22.77;30.43;98185.50;4868570;29;1139;-74
2023/08/09 08:57:07;;;;;;;;;;;;;;;22.94;30.30;98179.78;4864691;29;1933;-74
2023/08/09 08:59:34;;;;;;;;;;;;;;;23.03;30.48;98179.94;4878191;29;1700;-75
2023/08/09 09:02:01;;;;;;;;;;;;;;;23.10;30.31;98174.03;4865322;29;1894;-75
2023/08/09 09:04:26;;;;;;;;;;;;;;;23.13;30.02;98170.31;4865297;29;1051;-75
2023/08/09 09:06:52;;;;;;;;;;;;;;;23.11;29.87;98176.44;4865179;29;970;-75
2023/08/09 09:09:17;;;;;;;;;;;;;;;22.84;30.13;98168.25;4865326;29;1047;-75
2023/08/09 09:11:43;;;;;;;;;;;;;;;22.60;30.76;98158.44;4865280;29;1994;-75
2023/08/09 09:14:12;;;;;;;;;;;;;;;22.81;30.15;98163.50;4865274;29;888;-75
2023/08/09 09:16:37;;;;;;;;;;;;;;;22.78;30.35;98170.06;4865352;29;962;-74
2023/08/09 09:19:03;;;;;;;;;;;;;;;22.92;30.06;98165.25;4883396;29;1084;-75
2023/08/09 09:21:32;;;;;;;;;;;;;;;22.98;29.80;98166.28;4901435;29;2100;-75
2023/08/09 09:24:01;;;;;;;;;;;;;;;22.82;30.07;98153.75;4902328;29;1006;-74
2023/08/09 09:26:28;;;;;;;;;;;;;;;22.82;29.72;98159.41;4902088;29;1342;-74
2023/08/09 09:28:53;;;;;;;;;;;;;;;23.09;29.38;98149.75;4901996;29;1134;-74
2023/08/09 09:31:19;;;;;;;;;;;;;;;22.91;29.82;98149.50;4901880;29;1976;-74
2023/08/09 09:33:45;;;;;;;;;;;;;;;22.74;29.96;98143.88;4908244;29;997;-75
2023/08/09 09:36:11;;;;;;;;;;;;;;;22.83;29.92;98141.13;4939468;29;1008;-74
2023/08/09 09:38:37;;;;;;;;;;;;;;;22.63;30.23;98143.34;4955804;29;1141;-74
2023/08/09 09:41:03;;;;;;;;;;;;;;;22.74;30.09;98146.69;4955896;29;1128;-75
2023/08/09 09:43:32;;;;;;;;;;;;;;;22.58;29.99;98149.56;4955933;29;967;-74
2023/08/09 09:45:58;;;;;;;;;;;;;;;22.58;30.02;98144.69;4946274;29;1290;-74
2023/08/09 09:48:23;;;;;;;;;;;;;;;22.87;29.55;98144.69;4935866;29;995;-74
2023/08/09 09:50:49;;;;;;;;;;;;;;;22.93;29.42;98147.00;4916683;29;1073;-74
2023/08/09 09:53:15;;;;;;;;;;;;;;;23.04;28.99;98147.47;4916530;29;1948;-74
2023/08/09 09:55:41;;;;;;;;;;;;;;;22.78;29.47;98140.91;4931811;29;1608;-76
2023/08/09 09:58:06;;;;;;;;;;;;;;;22.89;29.60;98130.06;4913777;29;1359;-75
2023/08/09 10:00:32;;;;;;;;;;;;;;;22.72;29.56;98132.16;4933481;29;1487;-76
2023/08/09 10:03:00;;;;;;;;;;;;;;;22.75;29.79;98125.59;4906431;29;1530;-76
2023/08/09 10:05:28;;;;;;;;;;;;;;;22.69;29.60;98127.41;4903862;29;1716;-76
2023/08/09 10:07:55;;;;;;;;;;;;;;;22.60;29.81;98124.41;4927616;29;1519;-77
2023/08/09 10:10:21;;;;;;;;;;;;;;;22.66;29.74;98119.78;4924078;29;977;-76
2023/08/09 10:12:47;;;;;;;;;;;;;;;22.56;29.70;98107.50;4923781;29;1899;-76
2023/08/09 10:15:14;;;;;;;;;;;;;;;22.63;29.81;98103.66;4939099;29;2099;-76
2023/08/09 10:17:39;;;;;;;;;;;;;;;22.68;29.66;98111.59;4936846;29;1644;-75
2023/08/09 10:20:05;;;;;;;;;;;;;;;22.68;29.77;98099.47;4939775;29;1540;-75
2023/08/09 10:22:31;;;;;;;;;;;;;;;22.79;29.34;98103.56;4921795;29;1482;-76
2023/08/09 10:24:57;;;;;;;;;;;;;;;22.84;29.69;98103.00;4939794;29;1247;-76
2023/08/09 10:27:41;;;;;;;;;;;;;;;22.79;29.50;98097.88;4939350;29;1298;-76
2023/08/09 10:30:09;;;;;;;;;;;;;;;22.53;30.10;98104.75;4938939;29;1587;-76
2023/08/09 10:32:47;;;;;;;;;;;;;;;22.90;29.32;98108.16;4919095;29;1890;-75
2023/08/09 10:35:17;;;;;;;;;;;;;;;22.56;29.79;98107.50;4922669;29;1099;-76
2023/08/09 10:37:43;;;;;;;;;;;;;;;22.62;29.56;98104.91;4938879;29;1584;-76
2023/08/09 10:40:15;;;;;;;;;;;;;;;22.70;29.61;98099.81;4907167;29;1134;-75
2023/08/09 10:42:45;;;;;;;;;;;;;;;22.90;29.34;98099.66;4907207;29;961;-76
2023/08/09 10:45:11;;;;;;;;;;;;;;;22.83;29.25;98092.91;4885267;29;1264095;-75
2023/08/09 10:47:37;;;;;;;;;;;;;;;22.65;29.65;98084.16;4943237;29;1114;-76
2023/08/09 10:50:05;;;;;;;;;;;;;;;22.63;29.67;98095.13;4942761;29;1004;-77
2023/08/09 10:52:36;;;;;;;;;;;;;;;22.60;29.79;98087.53;4942789;29;1902;-76
2023/08/09 10:55:09;;;;;;;;;;;;;;;22.55;30.00;98077.56;4942871;29;932;-76
2023/08/09 10:57:41;;;;;;;;;;;;;;;22.68;29.71;98074.72;4958619;29;965;-76
2023/08/09 11:00:12;;;;;;;;;;;;;;;22.67;29.85;98067.47;4946412;29;1064;-76
2023/08/09 11:02:44;;;;;;;;;;;;;;;22.48;30.23;98080.56;4938779;29;918;-77
2023/08/09 11:05:09;;;;;;;;;;;;;;;22.84;29.61;98065.34;4955740;29;1513;-78
2023/08/09 11:07:35;;;;;;;;;;;;;;;22.81;29.43;98078.41;4956029;29;990;-77
2023/08/09 11:10:00;;;;;;;;;;;;;;;22.77;29.72;98072.03;4934587;29;1433;-77
2023/08/09 11:12:26;;;;;;;;;;;;;;;22.69;29.73;98076.34;4923414;29;1891;-75
2023/08/09 11:14:52;;;;;;;;;;;;;;;22.76;29.59;98075.31;4951796;29;959;-74
2023/08/09 11:17:17;;;;;;;;;;;;;;;22.72;29.65;98068.97;4943928;29;1912;-75
2023/08/09 11:19:43;;;;;;;;;;;;;;;22.61;29.90;98060.78;4944040;29;1832;-74
2023/08/09 11:22:09;;;;;;;;;;;;;;;22.40;30.13;98069.91;4960536;29;1532;-74
2023/08/09 11:24:34;;;;;;;;;;;;;;;22.73;29.73;98065.66;4926767;29;1800;-75
2023/08/09 11:27:00;;;;;;;;;;;;;;;22.44;30.11;98062.09;4958552;29;1366;-75
2023/08/09 11:29:29;;;;;;;;;;;;;;;22.31;30.19;98062.84;4943203;29;1681;-75
2023/08/09 11:31:55;;;;;;;;;;;;;;;22.33;30.11;98066.03;4943613;29;1899;-74
2023/08/09 11:34:21;;;;;;;;;;;;;;;22.85;29.26;98067.75;4943465;29;955;-74
2023/08/09 11:36:47;;;;;;;;;;;;;;;22.85;29.22;98062.06;4900873;29;949;-75
2023/08/09 11:39:13;;;;;;;;;;;;;;;22.71;29.43;98068.16;4863206;29;1719;-75
2023/08/09 11:41:59;;;;;;;;;;;;;;;22.89;29.46;98067.63;4846350;29;1586;-75
2023/08/09 11:44:33;;;;;;;;;;;;;;;22.67;29.62;98073.16;4862059;29;1708;-74
2023/08/09 11:47:00;;;;;;;;;;;;;;;22.41;30.01;98066.63;4875316;29;1515;-75
2023/08/09 11:49:26;;;;;;;;;;;;;;;22.47;29.88;98064.03;4882098;29;1898;-75
2023/08/09 11:51:52;;;;;;;;;;;;;;;22.48;30.07;98055.06;4851093;29;1912;-76
2023/08/09 11:54:17;;;;;;;;;;;;;;;22.61;29.66;98055.88;4882016;29;1194;-75
2023/08/09 11:56:43;;;;;;;;;;;;;;;22.76;29.50;98056.25;4844726;29;992;-75
2023/08/09 11:59:09;;;;;;;;;;;;;;;22.70;29.85;98055.22;4829861;29;1118;-75
2023/08/09 12:01:38;;;;;;;;;;;;;;;22.59;29.97;98049.88;4844890;29;1150;-74
2023/08/09 12:04:08;;;;;;;;;;;;;;;22.58;29.78;98047.47;4844740;29;1160;-76
2023/08/09 12:06:34;;;;;;;;;;;;;;;22.67;29.62;98047.63;4829798;29;1256;-75
2023/08/09 12:09:00;;;;;;;;;;;;;;;22.68;29.69;98045.56;4881674;29;1088;-75
2023/08/09 12:11:26;;;;;;;;;;;;;;;22.63;29.68;98049.75;4900306;29;1985;-75
2023/08/09 12:13:51;;;;;;;;;;;;;;;22.61;29.83;98040.91;4884848;29;1211;-74
2023/08/09 12:16:17;;;;;;;;;;;;;;;22.42;30.34;98039.06;4900363;29;1040;-75
2023/08/09 12:18:42;;;;;;;;;;;;;;;22.60;30.28;98034.47;4884470;29;995;-74
2023/08/09 12:21:08;;;;;;;;;;;;;;;22.65;29.76;98035.94;4900296;29;1047;-74
2023/08/09 12:23:34;;;;;;;;;;;;;;;22.65;29.99;98041.63;4900298;29;979;-75
2023/08/09 12:26:00;;;;;;;;;;;;;;;22.81;29.50;98027.34;4865842;29;1064;-75
2023/08/09 12:28:26;;;;;;;;;;;;;;;22.77;29.94;98032.31;4881547;29;1177;-74
2023/08/09 12:30:52;;;;;;;;;;;;;;;22.76;29.75;98042.06;4881329;29;1031;-74
2023/08/09 12:33:17;;;;;;;;;;;;;;;22.83;29.79;98032.53;4896535;29;1977;-75
2023/08/09 12:35:43;;;;;;;;;;;;;;;22.73;29.69;98031.63;4881440;29;1126;-74
2023/08/09 12:38:09;;;;;;;;;;;;;;;22.63;29.76;98029.91;4915884;29;1628;-75
2023/08/09 12:40:34;;;;;;;;;;;;;;;22.64;30.19;98028.69;4900098;29;1700;-76
2023/08/09 12:43:00;;;;;;;;;;;;;;;22.44;30.51;98023.19;4896640;29;1051;-76
2023/08/09 12:45:26;;;;;;;;;;;;;;;22.59;29.89;98032.88;4870081;29;1162;-74
2023/08/09 12:47:51;;;;;;;;;;;;;;;22.65;30.02;98033.09;4899809;29;985;-76
2023/08/09 12:50:17;;;;;;;;;;;;;;;22.35;30.28;98032.34;4899762;29;1010;-76
2023/08/09 12:52:42;;;;;;;;;;;;;;;22.48;30.33;98026.69;4910255;29;1902;-76
2023/08/09 12:55:08;;;;;;;;;;;;;;;22.42;30.34;98028.50;4902516;29;1491;-76